createdAt,value
2022-12-25T00:01:21.648Z,98005.16
2022-12-25T00:03:48.964Z,98010.47
2022-12-25T00:06:15.689Z,98011.31
2022-12-25T00:08:42.619Z,98006.03
2022-12-25T00:11:14.112Z,98015.56
2022-12-25T00:13:41.349Z,98016.25
2022-12-25T00:16:18.738Z,98030.00
2022-12-25T00:18:46.060Z,98033.88
2022-12-25T00:21:13.275Z,98023.28
2022-12-25T00:23:40.236Z,98020.63
2022-12-25T00:26:10.252Z,98025.88
2022-12-25T00:28:37.235Z,98026.84
2022-12-25T00:31:13.599Z,98020.63
2022-12-25T00:33:44.031Z,98035.19
2022-12-25T00:36:11.996Z,98031.28
2022-12-25T00:38:40.379Z,98039.66
2022-12-25T00:41:15.853Z,98044.59
2022-12-25T00:43:42.483Z,98043.91
2022-12-25T00:46:11.090Z,98046.44
2022-12-25T00:48:38.503Z,98050.81
2022-12-25T00:51:07.521Z,98050.81
2022-12-25T00:53:34.099Z,98049.31
2022-12-25T00:56:03.936Z,98047.63
2022-12-25T00:58:32.330Z,98051.97
2022-12-25T01:00:59.091Z,98049.56
2022-12-25T01:03:26.642Z,98056.59
2022-12-25T01:06:01.771Z,98061.72
2022-12-25T01:08:30.760Z,98054.69
2022-12-25T01:11:00.448Z,98053.84
2022-12-25T01:13:28.452Z,98057.44
2022-12-25T01:15:55.130Z,98069.63
2022-12-25T01:18:23.608Z,98071.38
2022-12-25T01:20:50.995Z,98067.13
2022-12-25T01:23:17.717Z,98066.19
2022-12-25T01:25:45.575Z,98071.47
2022-12-25T01:28:12.199Z,98071.38
2022-12-25T01:30:40.428Z,98068.72
2022-12-25T01:33:07.099Z,98081.59
2022-12-25T01:35:33.678Z,98068.59
2022-12-25T01:38:00.330Z,98073.66
2022-12-25T01:40:27.196Z,98076.06
2022-12-25T01:42:53.781Z,98078.00
2022-12-25T01:45:34.639Z,98071.88
2022-12-25T01:48:05.058Z,98071.13
2022-12-25T01:50:32.790Z,98061.47
2022-12-25T01:52:59.496Z,98056.34
2022-12-25T01:55:27.865Z,98059.78
2022-12-25T01:57:54.881Z,98053.84
2022-12-25T02:00:21.543Z,98052.34
2022-12-25T02:02:49.027Z,98058.38
2022-12-25T02:05:30.582Z,98060.72
2022-12-25T02:08:02.607Z,98062.03
2022-12-25T02:10:29.201Z,98059.88
2022-12-25T02:12:56.139Z,98074.66
2022-12-25T02:15:30.009Z,98067.94
2022-12-25T02:18:09.364Z,98069.78
2022-12-25T02:21:09.110Z,98076.50
2022-12-25T02:24:08.438Z,98069.47
2022-12-25T02:26:56.927Z,98076.31
2022-12-25T02:29:44.924Z,98089.41
2022-12-25T02:32:40.727Z,98080.69
2022-12-25T02:35:39.564Z,98082.34
2022-12-25T02:38:33.517Z,98070.88
2022-12-25T02:41:06.957Z,98069.28
2022-12-25T02:43:57.646Z,98071.47
2022-12-25T02:46:43.380Z,98067.28
2022-12-25T02:49:35.682Z,98073.03
2022-12-25T02:52:29.001Z,98070.44
2022-12-25T02:55:20.338Z,98064.59
2022-12-25T02:58:10.573Z,98068.09
2022-12-25T03:01:01.487Z,98064.03
2022-12-25T03:03:51.738Z,98061.69
2022-12-25T03:06:39.230Z,98058.22
2022-12-25T03:09:27.355Z,98060.09
2022-12-25T03:12:15.601Z,98063.72
2022-12-25T03:15:00.740Z,98070.91
2022-12-25T03:17:27.403Z,98056.50
2022-12-25T03:20:12.739Z,98055.81
2022-12-25T03:23:01.138Z,98042.50
2022-12-25T03:25:47.354Z,98041.22
2022-12-25T03:28:14.398Z,98041.16
2022-12-25T03:31:20.191Z,98024.56
2022-12-25T03:34:22.449Z,98031.50
2022-12-25T03:37:32.448Z,98039.16
2022-12-25T03:40:58.625Z,98034.44
2022-12-25T03:43:59.148Z,98037.84
2022-12-25T03:46:51.444Z,98049.78
2022-12-25T03:49:58.061Z,98055.28
2022-12-25T03:52:46.980Z,98062.69
2022-12-25T03:55:34.489Z,98056.22
2022-12-25T03:58:19.734Z,98050.56
2022-12-25T04:01:04.582Z,98052.47
2022-12-25T04:03:49.882Z,98059.56
2022-12-25T04:06:34.987Z,98059.72
2022-12-25T04:09:20.078Z,98047.81
2022-12-25T04:12:05.581Z,98058.03
2022-12-25T04:14:50.795Z,98064.81
2022-12-25T04:17:35.999Z,98055.91
2022-12-25T04:20:20.850Z,98064.66
2022-12-25T04:23:06.137Z,98076.34
2022-12-25T04:25:51.152Z,98085.50
2022-12-25T04:28:36.024Z,98077.50
2022-12-25T04:31:21.249Z,98082.44
2022-12-25T04:34:06.306Z,98074.50
2022-12-25T04:36:32.953Z,98078.78
2022-12-25T04:38:59.501Z,98079.38
2022-12-25T04:41:26.127Z,98079.06
2022-12-25T04:43:52.674Z,98078.38
2022-12-25T04:46:19.391Z,98073.97
2022-12-25T04:48:46.123Z,98066.72
2022-12-25T04:51:18.235Z,98074.50
2022-12-25T04:53:46.052Z,98072.00
2022-12-25T04:56:13.453Z,98076.25
2022-12-25T04:58:40.323Z,98067.72
2022-12-25T05:01:07.176Z,98063.91
2022-12-25T05:03:34.249Z,98068.78
2022-12-25T05:06:01.877Z,98071.00
2022-12-25T05:08:29.975Z,98075.81
2022-12-25T05:10:56.554Z,98078.75
2022-12-25T05:13:23.648Z,98081.66
2022-12-25T05:15:51.261Z,98089.88
2022-12-25T05:18:18.062Z,98079.97
2022-12-25T05:20:51.853Z,98069.88
2022-12-25T05:23:18.468Z,98065.84
2022-12-25T05:25:45.032Z,98070.31
2022-12-25T05:28:11.601Z,98058.72
2022-12-25T05:30:38.275Z,98063.56
2022-12-25T05:33:05.057Z,98064.59
2022-12-25T05:35:31.700Z,98063.91
2022-12-25T05:37:58.597Z,98060.47
2022-12-25T05:40:25.193Z,98061.53
2022-12-25T05:42:51.764Z,98061.66
2022-12-25T05:45:18.426Z,98058.59
2022-12-25T05:47:45.050Z,98061.66
2022-12-25T05:50:11.627Z,98059.38
2022-12-25T05:52:38.332Z,98076.84
2022-12-25T05:55:05.646Z,98081.38
2022-12-25T05:57:33.025Z,98074.41
2022-12-25T05:59:59.629Z,98084.59
2022-12-25T06:02:26.628Z,98091.75
2022-12-25T06:04:53.374Z,98091.06
2022-12-25T06:07:20.009Z,98085.16
2022-12-25T06:09:46.600Z,98087.69
2022-12-25T06:12:13.296Z,98089.50
2022-12-25T06:14:39.866Z,98103.22
2022-12-25T06:17:06.463Z,98089.25
2022-12-25T06:19:33.048Z,98096.34
2022-12-25T06:21:59.677Z,98090.44
2022-12-25T06:24:26.612Z,98100.69
2022-12-25T06:26:53.264Z,98112.84
2022-12-25T06:29:19.885Z,98096.28
2022-12-25T06:31:46.506Z,98098.81
2022-12-25T06:34:16.417Z,98102.25
2022-12-25T06:36:43.338Z,98102.03
2022-12-25T06:39:10.168Z,98109.09
2022-12-25T06:41:36.878Z,98105.75
2022-12-25T06:44:03.524Z,98112.59
2022-12-25T06:46:30.962Z,98112.97
2022-12-25T06:48:58.631Z,98113.19
2022-12-25T06:51:28.243Z,98116.25
2022-12-25T06:53:55.718Z,98115.00
2022-12-25T06:56:24.928Z,98115.28
2022-12-25T06:58:54.156Z,98126.22
2022-12-25T07:01:36.358Z,98129.31
2022-12-25T07:04:06.084Z,98133.97
2022-12-25T07:06:32.902Z,98128.47
2022-12-25T07:08:59.519Z,98126.47
2022-12-25T07:11:26.346Z,98120.63
2022-12-25T07:13:52.921Z,98119.53
2022-12-25T07:16:20.194Z,98130.44
2022-12-25T07:18:46.966Z,98128.22
2022-12-25T07:21:17.063Z,98133.03
2022-12-25T07:23:45.202Z,98134.34
2022-12-25T07:26:13.166Z,98136.63
2022-12-25T07:28:40.189Z,98128.28
2022-12-25T07:31:10.875Z,98135.78
2022-12-25T07:33:37.507Z,98139.81
2022-12-25T07:36:05.539Z,98144.72
2022-12-25T07:38:32.554Z,98151.19
2022-12-25T07:40:59.367Z,98150.03
2022-12-25T07:43:26.494Z,98158.28
2022-12-25T07:46:00.582Z,98163.66
2022-12-25T07:48:27.932Z,98167.63
2022-12-25T07:50:59.608Z,98164.84
2022-12-25T07:53:26.699Z,98173.09
2022-12-25T07:56:04.751Z,98170.25
2022-12-25T07:58:31.626Z,98174.97
2022-12-25T08:01:11.727Z,98185.19
2022-12-25T08:03:38.678Z,98187.88
2022-12-25T08:06:07.808Z,98179.75
2022-12-25T08:08:36.062Z,98186.41
2022-12-25T08:11:03.389Z,98193.34
2022-12-25T08:13:31.917Z,98186.31
2022-12-25T08:16:00.221Z,98188.75
2022-12-25T08:18:30.327Z,98182.44
2022-12-25T08:21:02.727Z,98170.97
2022-12-25T08:23:29.614Z,98169.97
2022-12-25T08:26:05.450Z,98175.81
2022-12-25T08:28:34.123Z,98164.81
2022-12-25T08:31:10.565Z,98175.47
2022-12-25T08:33:37.820Z,98171.09
2022-12-25T08:36:06.729Z,98179.97
2022-12-25T08:38:33.474Z,98172.06
2022-12-25T08:41:00.368Z,98182.81
2022-12-25T08:43:27.064Z,98174.94
2022-12-25T08:45:53.675Z,98178.44
2022-12-25T08:48:20.518Z,98176.34
2022-12-25T08:50:51.741Z,98181.50
2022-12-25T08:53:19.349Z,98184.97
2022-12-25T08:55:46.074Z,98182.66
2022-12-25T08:58:14.610Z,98187.56
2022-12-25T09:00:41.464Z,98177.06
2022-12-25T09:03:08.389Z,98170.06
2022-12-25T09:05:36.040Z,98179.38
2022-12-25T09:08:02.618Z,98176.56
2022-12-25T09:10:29.610Z,98182.00
2022-12-25T09:12:56.262Z,98180.22
2022-12-25T09:15:22.854Z,98181.53
2022-12-25T09:17:49.529Z,98192.41
2022-12-25T09:20:16.168Z,98189.97
2022-12-25T09:22:42.822Z,98169.13
2022-12-25T09:25:09.901Z,98171.41
2022-12-25T09:27:36.493Z,98176.59
2022-12-25T09:30:04.057Z,98170.44
2022-12-25T09:32:30.707Z,98171.72
2022-12-25T09:34:57.286Z,98177.34
2022-12-25T09:37:23.888Z,98175.88
2022-12-25T09:39:50.463Z,98174.22
2022-12-25T09:42:22.470Z,98173.28
2022-12-25T09:44:57.747Z,98164.09
2022-12-25T09:47:29.543Z,98167.63
2022-12-25T09:49:58.868Z,98166.13
2022-12-25T09:52:35.574Z,98169.22
2022-12-25T09:55:08.427Z,98161.78
2022-12-25T09:57:35.001Z,98165.66
2022-12-25T10:00:01.629Z,98155.88
2022-12-25T10:02:36.925Z,98146.19
2022-12-25T10:05:17.816Z,98147.56
2022-12-25T10:07:54.674Z,98143.25
2022-12-25T10:10:59.636Z,98144.88
2022-12-25T10:13:47.769Z,98136.19
2022-12-25T10:16:39.374Z,98138.03
2022-12-25T10:19:18.990Z,98126.81
2022-12-25T10:21:47.271Z,98126.75
2022-12-25T10:24:38.518Z,98133.69
2022-12-25T10:27:26.382Z,98115.16
2022-12-25T10:29:56.860Z,98113.50
2022-12-25T10:32:23.513Z,98112.44
2022-12-25T10:34:50.702Z,98106.66
2022-12-25T10:37:17.473Z,98105.41
2022-12-25T10:39:46.981Z,98107.03
2022-12-25T10:42:43.786Z,98093.06
2022-12-25T10:45:10.631Z,98090.94
2022-12-25T10:47:42.496Z,98092.63
2022-12-25T10:50:23.022Z,98094.03
2022-12-25T10:53:05.208Z,98088.19
2022-12-25T10:55:33.016Z,98080.44
2022-12-25T10:58:01.940Z,98087.88
2022-12-25T11:00:32.116Z,98091.38
2022-12-25T11:02:59.655Z,98087.56
2022-12-25T11:05:30.108Z,98088.28
2022-12-25T11:08:00.072Z,98089.94
2022-12-25T11:10:36.532Z,98083.22
2022-12-25T11:13:07.529Z,98076.03
2022-12-25T11:15:48.516Z,98070.34
2022-12-25T11:18:26.821Z,98073.28
2022-12-25T11:20:58.960Z,98068.38
2022-12-25T11:23:28.339Z,98078.59
2022-12-25T11:25:56.257Z,98073.53
2022-12-25T11:28:24.169Z,98066.19
2022-12-25T11:30:57.925Z,98056.56
2022-12-25T11:33:35.116Z,98062.22
2022-12-25T11:36:08.952Z,98048.63
2022-12-25T11:38:35.593Z,98047.19
2022-12-25T11:41:04.471Z,98045.84
2022-12-25T11:43:40.396Z,98044.22
2022-12-25T11:46:29.059Z,98046.31
2022-12-25T11:49:05.439Z,98039.50
2022-12-25T11:51:40.849Z,98036.69
2022-12-25T11:54:10.412Z,98034.84
2022-12-25T11:56:37.884Z,98030.69
2022-12-25T11:59:18.379Z,98025.66
2022-12-25T12:01:50.037Z,98028.59
2022-12-25T12:04:29.626Z,98034.88
2022-12-25T12:07:13.287Z,98025.63
2022-12-25T12:10:00.527Z,98035.53
2022-12-25T12:12:48.879Z,98033.84
2022-12-25T12:15:35.866Z,98027.03
2022-12-25T12:18:19.107Z,98003.38
2022-12-25T12:20:57.189Z,97994.25
2022-12-25T12:23:24.212Z,97986.50
2022-12-25T12:25:51.788Z,97997.66
2022-12-25T12:28:27.559Z,98009.47
2022-12-25T12:31:00.944Z,98003.03
2022-12-25T12:33:36.410Z,98014.63
2022-12-25T12:36:05.411Z,98008.50
2022-12-25T12:38:34.017Z,98008.31
2022-12-25T12:41:02.884Z,98002.91
2022-12-25T12:43:32.584Z,98004.78
2022-12-25T12:46:30.062Z,98006.09
2022-12-25T12:49:32.740Z,98011.28
2022-12-25T12:52:27.236Z,98005.22
2022-12-25T12:55:06.165Z,98007.97
2022-12-25T12:57:39.598Z,98007.09
2022-12-25T13:00:15.529Z,98010.69
2022-12-25T13:03:17.600Z,98009.34
2022-12-25T13:05:50.336Z,98010.38
2022-12-25T13:08:26.329Z,98009.50
2022-12-25T13:11:05.489Z,97999.44
2022-12-25T13:13:39.942Z,97995.66
2022-12-25T13:16:13.590Z,97993.75
2022-12-25T13:18:40.264Z,98000.25
2022-12-25T13:21:07.490Z,97999.16
2022-12-25T13:23:39.056Z,97997.03
2022-12-25T13:26:17.526Z,97988.91
2022-12-25T13:28:46.332Z,97977.84
2022-12-25T13:31:12.860Z,97997.16
2022-12-25T13:33:41.055Z,97998.63
2022-12-25T13:36:13.341Z,97993.81
2022-12-25T13:38:46.096Z,97992.78
2022-12-25T13:41:37.345Z,97999.22
2022-12-25T13:44:20.667Z,97996.44
2022-12-25T13:46:48.255Z,98004.75
2022-12-25T13:49:17.371Z,98005.53
2022-12-25T13:51:44.184Z,98012.31
2022-12-25T13:54:13.147Z,98011.81
2022-12-25T13:56:52.004Z,98012.53
2022-12-25T13:59:22.010Z,98012.31
2022-12-25T14:01:50.307Z,98010.88
2022-12-25T14:04:20.850Z,98001.00
2022-12-25T14:06:48.240Z,98006.53
2022-12-25T14:09:16.120Z,97996.22
2022-12-25T14:11:48.767Z,98002.91
2022-12-25T14:14:22.301Z,97998.44
2022-12-25T14:16:50.833Z,97997.03
2022-12-25T14:19:27.834Z,97993.06
2022-12-25T14:22:19.769Z,98000.09
2022-12-25T14:24:47.343Z,97992.72
2022-12-25T14:27:23.878Z,97991.75
2022-12-25T14:29:54.035Z,97993.81
2022-12-25T14:32:23.978Z,97993.00
2022-12-25T14:34:54.234Z,98003.75
2022-12-25T14:37:23.914Z,98010.06
2022-12-25T14:40:06.748Z,98001.81
2022-12-25T14:42:37.173Z,98003.47
2022-12-25T14:45:26.789Z,98001.63
2022-12-25T14:47:56.233Z,98003.81
2022-12-25T14:50:50.947Z,98001.56
2022-12-25T14:53:21.533Z,98003.84
2022-12-25T14:55:53.937Z,97998.72
2022-12-25T14:58:23.574Z,98012.09
2022-12-25T15:01:02.862Z,98011.84
2022-12-25T15:03:40.358Z,98008.25
2022-12-25T15:06:21.771Z,98009.28
2022-12-25T15:09:03.048Z,98010.78
2022-12-25T15:11:30.127Z,98011.34
2022-12-25T15:13:56.707Z,98011.66
2022-12-25T15:16:26.264Z,98005.66
2022-12-25T15:18:53.694Z,98007.72
2022-12-25T15:21:26.521Z,98013.66
2022-12-25T15:23:57.955Z,98010.97
2022-12-25T15:26:25.291Z,98000.19
2022-12-25T15:28:52.015Z,98004.13
2022-12-25T15:31:29.840Z,98008.78
2022-12-25T15:33:58.605Z,98018.22
2022-12-25T15:36:26.422Z,98022.56
2022-12-25T15:38:54.020Z,98019.25
2022-12-25T15:41:44.099Z,98021.84
2022-12-25T15:44:12.089Z,98020.91
2022-12-25T15:46:39.451Z,98022.66
2022-12-25T15:49:06.073Z,98019.13
2022-12-25T15:51:32.721Z,98021.09
2022-12-25T15:53:59.660Z,98015.56
2022-12-25T15:56:27.103Z,98016.91
2022-12-25T15:58:53.723Z,98016.78
2022-12-25T16:01:21.205Z,98019.03
2022-12-25T16:03:47.921Z,98024.31
2022-12-25T16:06:18.673Z,98018.25
2022-12-25T16:08:45.774Z,98015.06
2022-12-25T16:11:12.459Z,98028.53
2022-12-25T16:13:39.141Z,98018.47
2022-12-25T16:16:06.956Z,98006.03
2022-12-25T16:18:33.855Z,98003.91
2022-12-25T16:21:00.518Z,98004.47
2022-12-25T16:23:27.233Z,98009.41
2022-12-25T16:25:53.904Z,97993.97
2022-12-25T16:28:20.528Z,98000.59
2022-12-25T16:30:47.226Z,97992.13
2022-12-25T16:33:13.861Z,97996.03
2022-12-25T16:35:40.487Z,97991.41
2022-12-25T16:38:07.132Z,97984.44
2022-12-25T16:40:34.105Z,97978.69
2022-12-25T16:43:00.771Z,97985.00
2022-12-25T16:45:27.524Z,97992.53
2022-12-25T16:47:54.107Z,97990.50
2022-12-25T16:50:20.775Z,97998.75
2022-12-25T16:52:47.338Z,98000.53
2022-12-25T16:55:13.927Z,97989.75
2022-12-25T16:57:40.515Z,97984.84
2022-12-25T17:00:08.685Z,97998.22
2022-12-25T17:02:35.456Z,98003.31
2022-12-25T17:05:02.321Z,98008.69
2022-12-25T17:07:28.886Z,97999.22
2022-12-25T17:09:56.991Z,98002.00
2022-12-25T17:12:23.613Z,98001.44
2022-12-25T17:14:50.213Z,97988.88
2022-12-25T17:17:16.792Z,97981.84
2022-12-25T17:19:43.548Z,97983.19
2022-12-25T17:22:10.599Z,97997.22
2022-12-25T17:24:39.894Z,97995.66
2022-12-25T17:27:08.620Z,97982.81
2022-12-25T17:29:42.653Z,97992.75
2022-12-25T17:32:10.726Z,98002.28
2022-12-25T17:34:37.864Z,97991.06
2022-12-25T17:37:06.480Z,97988.72
2022-12-25T17:39:33.119Z,97982.78
2022-12-25T17:41:59.750Z,97987.75
2022-12-25T17:44:27.296Z,97989.78
2022-12-25T17:46:53.986Z,97996.81
2022-12-25T17:49:22.664Z,97992.56
2022-12-25T17:51:49.286Z,97997.00
2022-12-25T17:54:15.914Z,98000.63
2022-12-25T17:56:42.547Z,97997.53
2022-12-25T17:59:17.932Z,97998.53
2022-12-25T18:01:45.848Z,97999.56
2022-12-25T18:04:12.946Z,97996.38
2022-12-25T18:06:39.601Z,97986.31
2022-12-25T18:09:06.940Z,97980.94
2022-12-25T18:11:33.621Z,97977.63
2022-12-25T18:14:05.764Z,97979.47
2022-12-25T18:16:37.094Z,97983.41
2022-12-25T18:19:04.029Z,97979.78
2022-12-25T18:21:30.963Z,97988.03
2022-12-25T18:23:57.610Z,97979.47
2022-12-25T18:26:25.924Z,97979.31
2022-12-25T18:28:52.861Z,97987.94
2022-12-25T18:31:21.957Z,97993.22
2022-12-25T18:33:49.196Z,97997.66
2022-12-25T18:36:20.249Z,98003.19
2022-12-25T18:38:48.268Z,97993.22
2022-12-25T18:41:15.018Z,97976.38
2022-12-25T18:43:52.947Z,97973.69
2022-12-25T18:46:26.676Z,97967.66
2022-12-25T18:48:55.928Z,97960.38
2022-12-25T18:51:22.767Z,97955.44
2022-12-25T18:53:49.867Z,97953.66
2022-12-25T18:56:18.140Z,97939.16
2022-12-25T18:58:46.308Z,97943.78
2022-12-25T19:01:21.575Z,97941.41
2022-12-25T19:03:49.475Z,97945.47
2022-12-25T19:06:22.142Z,97949.13
2022-12-25T19:08:49.202Z,97950.22
2022-12-25T19:11:16.417Z,97940.06
2022-12-25T19:13:43.418Z,97958.66
2022-12-25T19:16:10.677Z,97942.25
2022-12-25T19:18:38.289Z,97942.56
2022-12-25T19:21:07.266Z,97941.88
2022-12-25T19:23:34.740Z,97940.81
2022-12-25T19:26:04.070Z,97946.56
2022-12-25T19:28:30.697Z,97955.03
2022-12-25T19:31:00.769Z,97954.59
2022-12-25T19:33:27.902Z,97962.13
2022-12-25T19:35:59.415Z,97957.09
2022-12-25T19:38:25.987Z,97951.25
2022-12-25T19:41:01.939Z,97953.84
2022-12-25T19:43:30.388Z,97951.00
2022-12-25T19:45:59.505Z,97948.88
2022-12-25T19:48:26.135Z,97950.94
2022-12-25T19:50:52.997Z,97951.00
2022-12-25T19:53:23.171Z,97957.72
2022-12-25T19:55:53.729Z,97953.72
2022-12-25T19:58:22.232Z,97952.78
2022-12-25T20:01:05.866Z,97947.28
2022-12-25T20:03:45.343Z,97955.19
2022-12-25T20:06:21.856Z,97959.56
2022-12-25T20:08:50.691Z,97961.31
2022-12-25T20:11:17.564Z,97952.00
2022-12-25T20:13:44.785Z,97942.03
2022-12-25T20:16:11.983Z,97932.75
2022-12-25T20:18:39.657Z,97926.84
2022-12-25T20:21:17.907Z,97909.09
2022-12-25T20:23:46.512Z,97917.81
2022-12-25T20:26:14.948Z,97934.19
2022-12-25T20:28:42.350Z,97934.03
2022-12-25T20:31:13.997Z,97929.63
2022-12-25T20:33:40.934Z,97926.25
2022-12-25T20:36:08.078Z,97919.81
2022-12-25T20:38:35.190Z,97922.63
2022-12-25T20:43:52.739Z,97921.09
2022-12-25T20:46:19.688Z,97931.94
2022-12-25T20:48:46.409Z,97921.72
2022-12-25T20:51:14.421Z,97924.91
2022-12-25T20:53:41.837Z,97923.53
2022-12-25T20:56:10.489Z,97921.03
2022-12-25T20:58:37.850Z,97922.00
2022-12-25T21:01:07.205Z,97923.69
2022-12-25T21:03:34.966Z,97915.91
2022-12-25T21:06:01.932Z,97923.78
2022-12-25T21:08:29.492Z,97922.31
2022-12-25T21:11:00.771Z,97918.28
2022-12-25T21:13:30.775Z,97916.59
2022-12-25T21:15:58.072Z,97899.53
2022-12-25T21:18:26.656Z,97899.75
2022-12-25T21:20:56.582Z,97909.47
2022-12-25T21:23:23.660Z,97902.34
2022-12-25T21:25:50.250Z,97898.84
2022-12-25T21:28:17.008Z,97898.69
2022-12-25T21:30:43.723Z,97890.47
2022-12-25T21:33:31.179Z,97883.59
2022-12-25T21:36:11.442Z,97894.94
2022-12-25T21:38:38.868Z,97906.59
2022-12-25T21:41:07.699Z,97906.88
2022-12-25T21:43:35.345Z,97906.28
2022-12-25T21:46:07.689Z,97898.78
2022-12-25T21:48:36.473Z,97900.00
2022-12-25T21:51:24.024Z,97903.63
2022-12-25T21:53:51.209Z,97906.91
2022-12-25T21:56:18.324Z,97918.53
2022-12-25T21:58:44.932Z,97918.53
2022-12-25T22:01:11.849Z,97906.38
2022-12-25T22:03:38.612Z,97906.97
2022-12-25T22:06:24.149Z,97894.81
2022-12-25T22:08:50.767Z,97903.56
2022-12-25T22:11:35.613Z,97893.22
2022-12-25T22:14:20.823Z,97885.50
2022-12-25T22:17:26.223Z,97889.63
2022-12-25T22:19:52.936Z,97895.56
2022-12-25T22:22:22.805Z,97904.97
2022-12-25T22:24:51.291Z,97914.41
2022-12-25T22:27:18.658Z,97913.00
2022-12-25T22:29:45.399Z,97906.13
2022-12-25T22:32:13.420Z,97898.13
2022-12-25T22:34:40.112Z,97890.38
2022-12-25T22:37:09.427Z,97873.16
2022-12-25T22:39:36.236Z,97876.03
2022-12-25T22:42:02.897Z,97891.47
2022-12-25T22:44:31.156Z,97874.28
2022-12-25T22:46:57.850Z,97877.44
2022-12-25T22:49:25.755Z,97877.22
2022-12-25T22:51:54.203Z,97883.47
2022-12-25T22:54:22.160Z,97879.81
2022-12-25T22:56:50.927Z,97884.84
2022-12-25T22:59:20.332Z,97881.63
2022-12-25T23:01:47.467Z,97877.72
2022-12-25T23:04:14.183Z,97869.88
2022-12-25T23:06:41.875Z,97863.97
2022-12-25T23:09:09.129Z,97864.91
2022-12-25T23:11:35.952Z,97871.84
2022-12-25T23:14:21.809Z,97876.91
2022-12-25T23:16:48.440Z,97871.56
2022-12-25T23:19:33.640Z,97860.41
2022-12-25T23:22:19.399Z,97866.56
2022-12-25T23:25:04.218Z,97861.50
2022-12-25T23:27:30.799Z,97869.41
2022-12-25T23:29:57.360Z,97868.56
2022-12-25T23:32:25.874Z,97865.25
2022-12-25T23:34:52.808Z,97864.50
2022-12-25T23:37:19.610Z,97860.47
2022-12-25T23:39:46.776Z,97869.06
2022-12-25T23:42:13.740Z,97869.41
2022-12-25T23:44:40.315Z,97867.72
2022-12-25T23:47:07.088Z,97871.22
2022-12-25T23:49:33.760Z,97870.50
2022-12-25T23:52:00.350Z,97874.06
2022-12-25T23:54:29.750Z,97874.84
2022-12-25T23:56:57.670Z,97866.41
2022-12-25T23:59:28.568Z,97868.78
